MET5207 - Boston to Greenville - Spartanburg

Embraer ERJ-170LR
N924AG
2 hrs 00 mins
691 nm
Scheduled - Daily

Bid/PiRep Status

Bid was submitted on Dec 31 2016.

PiRep # 74548: Approved by Sean Doyle on January 1st, 2017 20:52 UTC

Departure

Departing from
Boston (BOS)
Departure gate
Scheduled Departure
GMT 1230
Local 0830
METAR KBOS 242139Z 03018G23KT 3SM RA BR FEW006 BKN009 OVC033 15/14 A2989 RMK AO2 P0007 T01500144 $
TAF KBOS 242037Z 2421/2524 05016G26KT 1SM RA BR BKN007 OVC016 FM242200 04013G25KT 3SM -SHRA BR OVC008 FM250100 03011G22KT P6SM VCSH OVC008 FM251100 02007KT P6SM OVC010 FM252300 03005KT P6SM BKN035

Arrival

Arriving at
Greenville - Spartanburg (GSP)
Arrival gate
Unassigned
Scheduled Arrival
GMT 1430
Local 1030
METAR KGSP 242153Z 05004KT 10SM CLR 31/21 A2994 RMK AO2 SLP125 T03110206
TAF KGSP 241733Z 2418/2518 VRB03KT P6SM FEW040 BKN120 FM242000 20006KT P6SM VCTS SCT045CB BKN120 FM250000 21005KT P6SM SCT050 BKN250 FM250500 VRB03KT P6SM BKN250 FM251400 02005KT P6SM FEW050 BKN250

Route Map

Planning Resources

HAFNR GVE LYH
TERPZ3 LDN GVE J75 GSO J14 SPA
TERPZ5 FLASK J48 SPA92 J53 SPA ICASY OXABY
PATSS SWALO J75 SBJ V419 BIGGY J75 GVE V476 LYH WHTTL
BOS PUT HFD RBV OOD OTT GVE LYH SPA KGSP
Route:
OFP Layout:
Units:
Detailed Navlog:
ETOPS Planning:
Plan Stepclimbs:
Runway Analysis:
Include NOTAMS:
FIR NOTAMS:
Flight Maps:

Return Flights

MET5208
Embraer ERJ-170LR
1500 GMT
MET5210
Embraer ERJ-170LR
0000 GMT

Popularity

Hub Current Bids PiReps this month Total PiReps
KMCI 0 0 2
KLAX 0 0 0
KBOS 0 0 3